sensor_id;sensor_type;location;lat;lon;timestamp;temperature;humidity
73939;DHT22;62291;47.554;8.504;2022-12-31T00:00:46;10.90;99.90
73939;DHT22;62291;47.554;8.504;2022-12-31T00:03:12;10.90;99.90
73939;DHT22;62291;47.554;8.504;2022-12-31T00:05:38;10.90;99.90
73939;DHT22;62291;47.554;8.504;2022-12-31T00:08:04;11.00;99.90
73939;DHT22;62291;47.554;8.504;2022-12-31T00:10:29;11.00;99.90
73939;DHT22;62291;47.554;8.504;2022-12-31T00:12:55;11.00;99.90
73939;DHT22;62291;47.554;8.504;2022-12-31T00:15:21;11.00;99.90
73939;DHT22;62291;47.554;8.504;2022-12-31T00:17:46;11.00;99.90
73939;DHT22;62291;47.554;8.504;2022-12-31T00:20:12;11.00;99.90
73939;DHT22;62291;47.554;8.504;2022-12-31T00:22:38;11.00;99.90
73939;DHT22;62291;47.554;8.504;2022-12-31T00:25:04;11.10;99.90
73939;DHT22;62291;47.554;8.504;2022-12-31T00:27:30;11.10;99.90
73939;DHT22;62291;47.554;8.504;2022-12-31T00:29:57;11.10;99.90
73939;DHT22;62291;47.554;8.504;2022-12-31T00:32:23;11.10;99.90
73939;DHT22;62291;47.554;8.504;2022-12-31T00:34:49;11.20;99.90
73939;DHT22;62291;47.554;8.504;2022-12-31T00:37:15;11.30;99.90
73939;DHT22;62291;47.554;8.504;2022-12-31T00:39:40;11.30;99.90
73939;DHT22;62291;47.554;8.504;2022-12-31T00:42:06;11.40;99.90
73939;DHT22;62291;47.554;8.504;2022-12-31T00:44:31;11.40;99.90
73939;DHT22;62291;47.554;8.504;2022-12-31T00:46:59;11.40;99.90
73939;DHT22;62291;47.554;8.504;2022-12-31T00:49:24;11.40;99.90
73939;DHT22;62291;47.554;8.504;2022-12-31T00:51:50;11.50;99.90
73939;DHT22;62291;47.554;8.504;2022-12-31T00:54:16;11.50;99.90
73939;DHT22;62291;47.554;8.504;2022-12-31T00:56:41;11.60;99.90
73939;DHT22;62291;47.554;8.504;2022-12-31T00:59:07;11.60;99.90
73939;DHT22;62291;47.554;8.504;2022-12-31T01:01:35;11.70;99.90
73939;DHT22;62291;47.554;8.504;2022-12-31T01:04:04;11.80;99.90
73939;DHT22;62291;47.554;8.504;2022-12-31T01:06:30;11.80;99.90
73939;DHT22;62291;47.554;8.504;2022-12-31T01:08:56;11.90;99.90
73939;DHT22;62291;47.554;8.504;2022-12-31T01:11:23;11.90;99.90
73939;DHT22;62291;47.554;8.504;2022-12-31T01:14:02;12.00;99.90
73939;DHT22;62291;47.554;8.504;2022-12-31T01:16:31;12.00;99.90
73939;DHT22;62291;47.554;8.504;2022-12-31T01:19:02;12.00;99.90
73939;DHT22;62291;47.554;8.504;2022-12-31T01:21:29;12.10;99.90
73939;DHT22;62291;47.554;8.504;2022-12-31T01:23:54;12.10;99.90
73939;DHT22;62291;47.554;8.504;2022-12-31T01:26:20;12.20;99.90
73939;DHT22;62291;47.554;8.504;2022-12-31T01:28:46;12.20;99.90
73939;DHT22;62291;47.554;8.504;2022-12-31T01:31:15;12.30;99.90
73939;DHT22;62291;47.554;8.504;2022-12-31T01:33:41;12.30;99.90
73939;DHT22;62291;47.554;8.504;2022-12-31T01:36:14;12.30;99.90
73939;DHT22;62291;47.554;8.504;2022-12-31T01:38:40;12.40;99.90
73939;DHT22;62291;47.554;8.504;2022-12-31T01:41:08;12.30;99.90
73939;DHT22;62291;47.554;8.504;2022-12-31T01:43:48;12.30;99.90
73939;DHT22;62291;47.554;8.504;2022-12-31T01:46:35;12.30;99.90
73939;DHT22;62291;47.554;8.504;2022-12-31T01:51:35;12.20;99.90
73939;DHT22;62291;47.554;8.504;2022-12-31T01:54:05;12.20;99.90
73939;DHT22;62291;47.554;8.504;2022-12-31T01:56:34;12.10;99.90
73939;DHT22;62291;47.554;8.504;2022-12-31T01:59:00;12.10;99.90
73939;DHT22;62291;47.554;8.504;2022-12-31T02:01:31;12.10;99.90
73939;DHT22;62291;47.554;8.504;2022-12-31T02:03:58;12.10;99.90
73939;DHT22;62291;47.554;8.504;2022-12-31T02:06:40;12.10;99.90
73939;DHT22;62291;47.554;8.504;2022-12-31T02:09:08;12.10;99.90
73939;DHT22;62291;47.554;8.504;2022-12-31T02:11:34;12.10;99.90
73939;DHT22;62291;47.554;8.504;2022-12-31T02:14:23;12.10;99.90
73939;DHT22;62291;47.554;8.504;2022-12-31T02:20:07;12.10;99.90
73939;DHT22;62291;47.554;8.504;2022-12-31T02:28:17;12.10;99.90
73939;DHT22;62291;47.554;8.504;2022-12-31T02:30:48;12.10;99.90
73939;DHT22;62291;47.554;8.504;2022-12-31T02:33:21;12.00;99.90
73939;DHT22;62291;47.554;8.504;2022-12-31T02:35:58;12.00;99.90
73939;DHT22;62291;47.554;8.504;2022-12-31T02:38:30;12.00;99.90
73939;DHT22;62291;47.554;8.504;2022-12-31T02:40:57;12.00;99.90
73939;DHT22;62291;47.554;8.504;2022-12-31T02:43:23;12.10;99.90
73939;DHT22;62291;47.554;8.504;2022-12-31T02:51:44;12.10;99.90
73939;DHT22;62291;47.554;8.504;2022-12-31T02:54:48;12.10;99.90
73939;DHT22;62291;47.554;8.504;2022-12-31T02:57:20;12.10;99.90
73939;DHT22;62291;47.554;8.504;2022-12-31T02:59:52;12.10;99.90
73939;DHT22;62291;47.554;8.504;2022-12-31T03:02:41;12.10;99.90
73939;DHT22;62291;47.554;8.504;2022-12-31T03:05:09;12.10;99.90
73939;DHT22;62291;47.554;8.504;2022-12-31T03:07:35;12.10;99.90
73939;DHT22;62291;47.554;8.504;2022-12-31T03:10:01;12.10;99.90
73939;DHT22;62291;47.554;8.504;2022-12-31T03:12:30;12.00;99.90
73939;DHT22;62291;47.554;8.504;2022-12-31T03:15:28;12.00;99.90
73939;DHT22;62291;47.554;8.504;2022-12-31T03:18:07;12.10;99.90
73939;DHT22;62291;47.554;8.504;2022-12-31T03:20:39;12.10;99.90
73939;DHT22;62291;47.554;8.504;2022-12-31T03:23:26;12.10;99.90
73939;DHT22;62291;47.554;8.504;2022-12-31T03:25:52;12.10;99.90
73939;DHT22;62291;47.554;8.504;2022-12-31T03:28:21;12.20;99.90
73939;DHT22;62291;47.554;8.504;2022-12-31T03:30:53;12.10;99.90
73939;DHT22;62291;47.554;8.504;2022-12-31T03:33:19;12.20;99.90
73939;DHT22;62291;47.554;8.504;2022-12-31T03:35:47;12.20;99.90
73939;DHT22;62291;47.554;8.504;2022-12-31T03:38:13;12.30;99.90
73939;DHT22;62291;47.554;8.504;2022-12-31T03:40:43;12.30;99.90
73939;DHT22;62291;47.554;8.504;2022-12-31T03:43:09;12.40;99.90
73939;DHT22;62291;47.554;8.504;2022-12-31T03:45:35;12.40;99.90
73939;DHT22;62291;47.554;8.504;2022-12-31T03:48:02;12.40;99.90
73939;DHT22;62291;47.554;8.504;2022-12-31T03:50:28;12.50;99.90
73939;DHT22;62291;47.554;8.504;2022-12-31T03:52:54;12.50;99.90
73939;DHT22;62291;47.554;8.504;2022-12-31T03:55:19;12.50;99.90
73939;DHT22;62291;47.554;8.504;2022-12-31T03:57:45;12.60;99.90
73939;DHT22;62291;47.554;8.504;2022-12-31T04:00:16;12.50;99.90
73939;DHT22;62291;47.554;8.504;2022-12-31T04:02:43;12.50;99.90
73939;DHT22;62291;47.554;8.504;2022-12-31T04:05:10;12.60;99.90
73939;DHT22;62291;47.554;8.504;2022-12-31T04:07:36;12.60;99.90
73939;DHT22;62291;47.554;8.504;2022-12-31T04:10:03;12.60;99.90
73939;DHT22;62291;47.554;8.504;2022-12-31T04:12:29;12.70;99.90
73939;DHT22;62291;47.554;8.504;2022-12-31T04:14:55;12.60;99.90
73939;DHT22;62291;47.554;8.504;2022-12-31T04:17:21;12.70;99.90
73939;DHT22;62291;47.554;8.504;2022-12-31T04:19:46;12.60;99.90
73939;DHT22;62291;47.554;8.504;2022-12-31T04:22:12;12.70;99.90
73939;DHT22;62291;47.554;8.504;2022-12-31T04:24:38;12.70;99.90
73939;DHT22;62291;47.554;8.504;2022-12-31T04:27:03;12.70;99.90
73939;DHT22;62291;47.554;8.504;2022-12-31T04:29:29;12.60;99.90
73939;DHT22;62291;47.554;8.504;2022-12-31T04:31:55;12.60;99.90
73939;DHT22;62291;47.554;8.504;2022-12-31T04:34:20;12.60;99.90
73939;DHT22;62291;47.554;8.504;2022-12-31T04:36:46;12.60;99.90
73939;DHT22;62291;47.554;8.504;2022-12-31T04:39:12;12.60;99.90
73939;DHT22;62291;47.554;8.504;2022-12-31T04:41:37;12.70;99.90
73939;DHT22;62291;47.554;8.504;2022-12-31T04:44:03;12.70;99.90
73939;DHT22;62291;47.554;8.504;2022-12-31T04:46:31;12.60;99.90
73939;DHT22;62291;47.554;8.504;2022-12-31T04:48:58;12.60;99.90
73939;DHT22;62291;47.554;8.504;2022-12-31T04:51:24;12.60;99.90
73939;DHT22;62291;47.554;8.504;2022-12-31T04:53:51;12.70;99.90
73939;DHT22;62291;47.554;8.504;2022-12-31T04:56:17;12.70;99.90
73939;DHT22;62291;47.554;8.504;2022-12-31T04:58:43;12.70;99.90
73939;DHT22;62291;47.554;8.504;2022-12-31T05:01:12;12.60;99.90
73939;DHT22;62291;47.554;8.504;2022-12-31T05:03:38;12.60;99.90
73939;DHT22;62291;47.554;8.504;2022-12-31T05:06:07;12.60;99.90
73939;DHT22;62291;47.554;8.504;2022-12-31T05:08:32;12.60;99.90
73939;DHT22;62291;47.554;8.504;2022-12-31T05:10:59;12.60;99.90
73939;DHT22;62291;47.554;8.504;2022-12-31T05:13:24;12.60;99.90
73939;DHT22;62291;47.554;8.504;2022-12-31T05:15:51;12.50;99.90
73939;DHT22;62291;47.554;8.504;2022-12-31T05:18:17;12.60;99.90
73939;DHT22;62291;47.554;8.504;2022-12-31T05:20:43;12.50;99.90
73939;DHT22;62291;47.554;8.504;2022-12-31T05:23:09;12.60;99.90
73939;DHT22;62291;47.554;8.504;2022-12-31T05:25:35;12.50;99.90
73939;DHT22;62291;47.554;8.504;2022-12-31T05:28:01;12.60;99.90
73939;DHT22;62291;47.554;8.504;2022-12-31T05:30:26;12.60;99.90
73939;DHT22;62291;47.554;8.504;2022-12-31T05:32:52;12.50;99.90
73939;DHT22;62291;47.554;8.504;2022-12-31T05:35:18;12.50;99.90
73939;DHT22;62291;47.554;8.504;2022-12-31T05:37:44;12.50;99.90
73939;DHT22;62291;47.554;8.504;2022-12-31T05:40:10;12.50;99.90
73939;DHT22;62291;47.554;8.504;2022-12-31T05:42:37;12.40;99.90
73939;DHT22;62291;47.554;8.504;2022-12-31T05:45:03;12.40;99.90
73939;DHT22;62291;47.554;8.504;2022-12-31T05:47:28;12.40;99.90
73939;DHT22;62291;47.554;8.504;2022-12-31T05:49:54;12.40;99.90
73939;DHT22;62291;47.554;8.504;2022-12-31T05:52:20;12.30;99.90
73939;DHT22;62291;47.554;8.504;2022-12-31T05:54:46;12.30;99.90
73939;DHT22;62291;47.554;8.504;2022-12-31T05:57:11;12.30;99.90
73939;DHT22;62291;47.554;8.504;2022-12-31T05:59:37;12.20;99.90
73939;DHT22;62291;47.554;8.504;2022-12-31T06:02:03;12.20;99.90
73939;DHT22;62291;47.554;8.504;2022-12-31T06:04:29;12.20;99.90
73939;DHT22;62291;47.554;8.504;2022-12-31T06:06:55;12.20;99.90
73939;DHT22;62291;47.554;8.504;2022-12-31T06:09:21;12.10;99.90
73939;DHT22;62291;47.554;8.504;2022-12-31T06:11:47;12.10;99.90
73939;DHT22;62291;47.554;8.504;2022-12-31T06:14:13;12.00;99.90
73939;DHT22;62291;47.554;8.504;2022-12-31T06:16:40;11.90;99.90
73939;DHT22;62291;47.554;8.504;2022-12-31T06:19:06;11.90;99.90
73939;DHT22;62291;47.554;8.504;2022-12-31T06:21:32;11.80;99.90
73939;DHT22;62291;47.554;8.504;2022-12-31T06:23:57;11.70;99.90
73939;DHT22;62291;47.554;8.504;2022-12-31T06:26:24;11.60;99.90
73939;DHT22;62291;47.554;8.504;2022-12-31T06:28:50;11.40;99.90
73939;DHT22;62291;47.554;8.504;2022-12-31T06:31:16;11.30;99.90
73939;DHT22;62291;47.554;8.504;2022-12-31T06:33:42;11.30;99.90
73939;DHT22;62291;47.554;8.504;2022-12-31T06:36:11;11.20;99.90
73939;DHT22;62291;47.554;8.504;2022-12-31T06:38:38;11.10;99.90
73939;DHT22;62291;47.554;8.504;2022-12-31T06:41:13;11.10;99.90
73939;DHT22;62291;47.554;8.504;2022-12-31T06:43:39;11.10;99.90
73939;DHT22;62291;47.554;8.504;2022-12-31T06:46:07;11.00;99.90
73939;DHT22;62291;47.554;8.504;2022-12-31T06:48:34;10.90;99.90
73939;DHT22;62291;47.554;8.504;2022-12-31T06:51:14;10.90;99.90
73939;DHT22;62291;47.554;8.504;2022-12-31T06:53:40;10.80;99.90
73939;DHT22;62291;47.554;8.504;2022-12-31T06:56:14;10.70;99.90
73939;DHT22;62291;47.554;8.504;2022-12-31T06:58:41;10.70;99.90
73939;DHT22;62291;47.554;8.504;2022-12-31T07:01:37;10.70;99.90
73939;DHT22;62291;47.554;8.504;2022-12-31T07:06:50;10.70;99.90
73939;DHT22;62291;47.554;8.504;2022-12-31T07:09:25;10.70;99.90
73939;DHT22;62291;47.554;8.504;2022-12-31T07:12:26;10.60;99.90
73939;DHT22;62291;47.554;8.504;2022-12-31T07:15:19;10.60;99.90
73939;DHT22;62291;47.554;8.504;2022-12-31T07:18:01;10.50;99.90
73939;DHT22;62291;47.554;8.504;2022-12-31T07:20:29;10.60;99.90
73939;DHT22;62291;47.554;8.504;2022-12-31T07:22:55;10.70;99.90
73939;DHT22;62291;47.554;8.504;2022-12-31T07:25:21;10.60;99.90
73939;DHT22;62291;47.554;8.504;2022-12-31T07:28:14;10.70;99.90
73939;DHT22;62291;47.554;8.504;2022-12-31T07:31:10;10.70;99.90
73939;DHT22;62291;47.554;8.504;2022-12-31T07:33:57;10.70;99.90
73939;DHT22;62291;47.554;8.504;2022-12-31T07:36:45;10.70;99.90
73939;DHT22;62291;47.554;8.504;2022-12-31T07:39:15;10.80;99.90
73939;DHT22;62291;47.554;8.504;2022-12-31T07:41:59;10.80;99.90
73939;DHT22;62291;47.554;8.504;2022-12-31T07:44:36;10.90;99.90
73939;DHT22;62291;47.554;8.504;2022-12-31T07:47:04;10.90;99.90
73939;DHT22;62291;47.554;8.504;2022-12-31T07:49:33;10.90;99.90
73939;DHT22;62291;47.554;8.504;2022-12-31T07:52:00;10.90;99.90
73939;DHT22;62291;47.554;8.504;2022-12-31T07:54:26;10.90;99.90
73939;DHT22;62291;47.554;8.504;2022-12-31T07:56:52;10.90;99.90
73939;DHT22;62291;47.554;8.504;2022-12-31T08:07:32;11.10;99.90
73939;DHT22;62291;47.554;8.504;2022-12-31T08:10:09;11.10;99.90
73939;DHT22;62291;47.554;8.504;2022-12-31T08:12:39;11.10;99.90
73939;DHT22;62291;47.554;8.504;2022-12-31T08:15:17;11.20;99.90
73939;DHT22;62291;47.554;8.504;2022-12-31T08:17:44;11.20;99.90
73939;DHT22;62291;47.554;8.504;2022-12-31T08:20:16;11.30;99.90
73939;DHT22;62291;47.554;8.504;2022-12-31T08:23:14;11.80;99.90
73939;DHT22;62291;47.554;8.504;2022-12-31T08:28:48;13.00;99.90
73939;DHT22;62291;47.554;8.504;2022-12-31T08:31:19;13.40;99.90
73939;DHT22;62291;47.554;8.504;2022-12-31T08:36:49;14.50;99.90
73939;DHT22;62291;47.554;8.504;2022-12-31T08:41:54;15.50;99.90
73939;DHT22;62291;47.554;8.504;2022-12-31T08:44:41;15.90;99.90
73939;DHT22;62291;47.554;8.504;2022-12-31T08:50:03;16.50;99.90
73939;DHT22;62291;47.554;8.504;2022-12-31T08:52:29;16.80;99.90
73939;DHT22;62291;47.554;8.504;2022-12-31T08:54:55;17.20;99.90
73939;DHT22;62291;47.554;8.504;2022-12-31T09:00:31;17.50;99.90
73939;DHT22;62291;47.554;8.504;2022-12-31T09:08:28;17.90;99.90
73939;DHT22;62291;47.554;8.504;2022-12-31T09:13:59;18.90;99.90
73939;DHT22;62291;47.554;8.504;2022-12-31T09:16:35;19.20;99.90
73939;DHT22;62291;47.554;8.504;2022-12-31T09:19:02;19.30;99.90
73939;DHT22;62291;47.554;8.504;2022-12-31T09:21:27;19.50;99.90
73939;DHT22;62291;47.554;8.504;2022-12-31T09:23:53;19.60;99.90
73939;DHT22;62291;47.554;8.504;2022-12-31T09:34:34;20.10;99.90
73939;DHT22;62291;47.554;8.504;2022-12-31T09:37:08;20.10;99.90
73939;DHT22;62291;47.554;8.504;2022-12-31T09:39:42;20.10;99.90
73939;DHT22;62291;47.554;8.504;2022-12-31T09:51:30;19.20;99.90
73939;DHT22;62291;47.554;8.504;2022-12-31T10:05:25;19.50;99.90
73939;DHT22;62291;47.554;8.504;2022-12-31T10:13:41;18.90;99.90
73939;DHT22;62291;47.554;8.504;2022-12-31T10:16:21;18.70;99.90
73939;DHT22;62291;47.554;8.504;2022-12-31T10:29:59;18.40;99.90
73939;DHT22;62291;47.554;8.504;2022-12-31T10:38:17;17.80;99.90
73939;DHT22;62291;47.554;8.504;2022-12-31T10:41:49;17.70;99.90
73939;DHT22;62291;47.554;8.504;2022-12-31T10:52:25;17.00;99.90
73939;DHT22;62291;47.554;8.504;2022-12-31T10:55:36;17.00;99.90
73939;DHT22;62291;47.554;8.504;2022-12-31T11:16:02;17.50;99.90
73939;DHT22;62291;47.554;8.504;2022-12-31T11:21:49;17.30;99.90
73939;DHT22;62291;47.554;8.504;2022-12-31T11:27:12;17.20;99.90
73939;DHT22;62291;47.554;8.504;2022-12-31T11:30:04;17.20;99.90
73939;DHT22;62291;47.554;8.504;2022-12-31T11:35:27;17.40;99.90
73939;DHT22;62291;47.554;8.504;2022-12-31T11:40:45;17.50;99.90
73939;DHT22;62291;47.554;8.504;2022-12-31T11:43:29;17.60;99.90
73939;DHT22;62291;47.554;8.504;2022-12-31T11:57:35;17.20;99.90
73939;DHT22;62291;47.554;8.504;2022-12-31T12:02:36;17.20;99.90
73939;DHT22;62291;47.554;8.504;2022-12-31T12:05:07;17.00;99.90
73939;DHT22;62291;47.554;8.504;2022-12-31T12:07:32;17.00;99.90
73939;DHT22;62291;47.554;8.504;2022-12-31T12:10:03;17.00;99.90
73939;DHT22;62291;47.554;8.504;2022-12-31T12:12:41;17.00;99.90
73939;DHT22;62291;47.554;8.504;2022-12-31T12:15:09;17.00;99.90
73939;DHT22;62291;47.554;8.504;2022-12-31T12:17:35;17.00;99.90
73939;DHT22;62291;47.554;8.504;2022-12-31T12:20:18;17.10;99.90
73939;DHT22;62291;47.554;8.504;2022-12-31T12:22:53;17.10;99.90
73939;DHT22;62291;47.554;8.504;2022-12-31T12:25:26;17.00;99.90
73939;DHT22;62291;47.554;8.504;2022-12-31T12:27:52;17.00;99.90
73939;DHT22;62291;47.554;8.504;2022-12-31T12:30:23;17.00;99.90
73939;DHT22;62291;47.554;8.504;2022-12-31T12:32:57;16.90;99.90
73939;DHT22;62291;47.554;8.504;2022-12-31T12:35:32;16.80;99.90
73939;DHT22;62291;47.554;8.504;2022-12-31T12:38:14;16.70;99.90
73939;DHT22;62291;47.554;8.504;2022-12-31T12:40:41;16.60;99.90
73939;DHT22;62291;47.554;8.504;2022-12-31T12:43:20;16.50;99.90
73939;DHT22;62291;47.554;8.504;2022-12-31T12:45:47;16.50;99.90
73939;DHT22;62291;47.554;8.504;2022-12-31T12:48:29;16.50;99.90
73939;DHT22;62291;47.554;8.504;2022-12-31T12:50:56;16.50;99.90
73939;DHT22;62291;47.554;8.504;2022-12-31T13:07:36;16.30;99.90
73939;DHT22;62291;47.554;8.504;2022-12-31T13:10:24;16.20;99.90
73939;DHT22;62291;47.554;8.504;2022-12-31T13:15:57;16.00;99.90
73939;DHT22;62291;47.554;8.504;2022-12-31T13:26:44;16.10;99.90
73939;DHT22;62291;47.554;8.504;2022-12-31T13:29:18;16.10;99.90
73939;DHT22;62291;47.554;8.504;2022-12-31T13:31:46;16.10;99.90
73939;DHT22;62291;47.554;8.504;2022-12-31T13:34:17;16.10;99.90
73939;DHT22;62291;47.554;8.504;2022-12-31T13:36:46;16.10;99.90
73939;DHT22;62291;47.554;8.504;2022-12-31T13:39:22;16.00;99.90
73939;DHT22;62291;47.554;8.504;2022-12-31T13:42:10;16.10;99.90
73939;DHT22;62291;47.554;8.504;2022-12-31T13:44:50;16.00;99.90
73939;DHT22;62291;47.554;8.504;2022-12-31T13:47:26;16.00;99.90
73939;DHT22;62291;47.554;8.504;2022-12-31T13:55:45;15.90;99.90
73939;DHT22;62291;47.554;8.504;2022-12-31T13:58:36;15.80;99.90
73939;DHT22;62291;47.554;8.504;2022-12-31T14:01:43;15.90;99.90
73939;DHT22;62291;47.554;8.504;2022-12-31T14:04:17;15.80;99.90
73939;DHT22;62291;47.554;8.504;2022-12-31T14:07:09;15.70;99.90
73939;DHT22;62291;47.554;8.504;2022-12-31T14:09:36;15.60;99.90
73939;DHT22;62291;47.554;8.504;2022-12-31T14:23:00;15.30;99.90
73939;DHT22;62291;47.554;8.504;2022-12-31T14:25:49;15.10;99.90
73939;DHT22;62291;47.554;8.504;2022-12-31T14:28:20;15.10;99.90
73939;DHT22;62291;47.554;8.504;2022-12-31T14:30:52;15.10;99.90
73939;DHT22;62291;47.554;8.504;2022-12-31T14:41:27;14.80;99.90
73939;DHT22;62291;47.554;8.504;2022-12-31T14:52:21;14.50;99.90
73939;DHT22;62291;47.554;8.504;2022-12-31T14:55:10;14.40;99.90
73939;DHT22;62291;47.554;8.504;2022-12-31T14:57:44;14.30;99.90
73939;DHT22;62291;47.554;8.504;2022-12-31T15:00:32;14.20;99.90
73939;DHT22;62291;47.554;8.504;2022-12-31T15:05:31;14.00;99.90
73939;DHT22;62291;47.554;8.504;2022-12-31T15:08:13;14.00;99.90
73939;DHT22;62291;47.554;8.504;2022-12-31T15:11:18;14.00;99.90
73939;DHT22;62291;47.554;8.504;2022-12-31T15:13:58;13.90;99.90
73939;DHT22;62291;47.554;8.504;2022-12-31T15:24:35;13.50;99.90
73939;DHT22;62291;47.554;8.504;2022-12-31T15:27:35;13.40;99.90
73939;DHT22;62291;47.554;8.504;2022-12-31T15:30:04;13.30;99.90
73939;DHT22;62291;47.554;8.504;2022-12-31T15:32:35;13.20;99.90
73939;DHT22;62291;47.554;8.504;2022-12-31T15:35:26;13.00;99.90
73939;DHT22;62291;47.554;8.504;2022-12-31T15:38:00;12.80;99.90
73939;DHT22;62291;47.554;8.504;2022-12-31T15:40:27;12.80;99.90
73939;DHT22;62291;47.554;8.504;2022-12-31T15:43:01;12.80;99.90
73939;DHT22;62291;47.554;8.504;2022-12-31T15:45:35;12.80;99.90
73939;DHT22;62291;47.554;8.504;2022-12-31T15:48:07;12.80;99.90
73939;DHT22;62291;47.554;8.504;2022-12-31T15:50:35;12.90;99.90
73939;DHT22;62291;47.554;8.504;2022-12-31T15:53:05;13.00;99.90
73939;DHT22;62291;47.554;8.504;2022-12-31T15:55:41;13.10;99.90
73939;DHT22;62291;47.554;8.504;2022-12-31T15:58:14;13.10;99.90
73939;DHT22;62291;47.554;8.504;2022-12-31T16:01:31;13.10;99.90
73939;DHT22;62291;47.554;8.504;2022-12-31T16:03:45;13.00;99.90
73939;DHT22;62291;47.554;8.504;2022-12-31T16:06:13;12.90;99.90
73939;DHT22;62291;47.554;8.504;2022-12-31T16:08:43;12.70;99.90
73939;DHT22;62291;47.554;8.504;2022-12-31T16:11:10;12.60;99.90
73939;DHT22;62291;47.554;8.504;2022-12-31T16:13:40;12.50;99.90
73939;DHT22;62291;47.554;8.504;2022-12-31T16:18:43;12.50;99.90
73939;DHT22;62291;47.554;8.504;2022-12-31T16:21:27;12.40;99.90
73939;DHT22;62291;47.554;8.504;2022-12-31T16:23:56;12.40;99.90
73939;DHT22;62291;47.554;8.504;2022-12-31T16:26:33;12.40;99.90
73939;DHT22;62291;47.554;8.504;2022-12-31T16:29:01;12.60;99.90
73939;DHT22;62291;47.554;8.504;2022-12-31T16:31:29;12.60;99.90
73939;DHT22;62291;47.554;8.504;2022-12-31T16:34:03;12.60;99.90
73939;DHT22;62291;47.554;8.504;2022-12-31T16:36:29;12.60;99.90
73939;DHT22;62291;47.554;8.504;2022-12-31T16:39:22;12.60;99.90
73939;DHT22;62291;47.554;8.504;2022-12-31T16:41:49;12.50;99.90
73939;DHT22;62291;47.554;8.504;2022-12-31T16:44:28;12.40;99.90
73939;DHT22;62291;47.554;8.504;2022-12-31T16:46:55;12.30;99.90
73939;DHT22;62291;47.554;8.504;2022-12-31T16:49:23;12.40;99.90
73939;DHT22;62291;47.554;8.504;2022-12-31T16:51:50;12.70;99.90
73939;DHT22;62291;47.554;8.504;2022-12-31T16:54:25;12.90;99.90
73939;DHT22;62291;47.554;8.504;2022-12-31T16:56:52;13.20;99.90
73939;DHT22;62291;47.554;8.504;2022-12-31T16:59:25;13.30;99.90
73939;DHT22;62291;47.554;8.504;2022-12-31T17:01:52;13.40;99.90
73939;DHT22;62291;47.554;8.504;2022-12-31T17:04:23;13.40;99.90
73939;DHT22;62291;47.554;8.504;2022-12-31T17:06:49;13.50;99.90
73939;DHT22;62291;47.554;8.504;2022-12-31T17:09:17;13.50;99.90
73939;DHT22;62291;47.554;8.504;2022-12-31T17:11:54;13.50;99.90
73939;DHT22;62291;47.554;8.504;2022-12-31T17:14:25;13.50;99.90
73939;DHT22;62291;47.554;8.504;2022-12-31T17:17:02;13.60;99.90
73939;DHT22;62291;47.554;8.504;2022-12-31T17:19:48;13.60;99.90
73939;DHT22;62291;47.554;8.504;2022-12-31T17:24:59;13.50;99.90
73939;DHT22;62291;47.554;8.504;2022-12-31T17:27:26;13.60;99.90
73939;DHT22;62291;47.554;8.504;2022-12-31T17:29:51;13.70;99.90
73939;DHT22;62291;47.554;8.504;2022-12-31T17:32:35;13.70;99.90
73939;DHT22;62291;47.554;8.504;2022-12-31T17:35:01;13.70;99.90
73939;DHT22;62291;47.554;8.504;2022-12-31T17:37:29;13.70;99.90
73939;DHT22;62291;47.554;8.504;2022-12-31T17:39:56;13.70;99.90
73939;DHT22;62291;47.554;8.504;2022-12-31T17:42:34;13.70;99.90
73939;DHT22;62291;47.554;8.504;2022-12-31T17:45:21;13.70;99.90
73939;DHT22;62291;47.554;8.504;2022-12-31T17:47:49;13.60;99.90
73939;DHT22;62291;47.554;8.504;2022-12-31T17:50:22;13.50;99.90
73939;DHT22;62291;47.554;8.504;2022-12-31T17:52:49;13.40;99.90
73939;DHT22;62291;47.554;8.504;2022-12-31T17:55:16;13.20;99.90
73939;DHT22;62291;47.554;8.504;2022-12-31T17:57:53;13.10;99.90
73939;DHT22;62291;47.554;8.504;2022-12-31T18:00:23;13.10;99.90
73939;DHT22;62291;47.554;8.504;2022-12-31T18:02:49;13.10;99.90
73939;DHT22;62291;47.554;8.504;2022-12-31T18:05:20;13.00;99.90
73939;DHT22;62291;47.554;8.504;2022-12-31T18:07:46;12.90;99.90
73939;DHT22;62291;47.554;8.504;2022-12-31T18:10:13;12.70;99.90
73939;DHT22;62291;47.554;8.504;2022-12-31T18:12:40;12.50;99.90
73939;DHT22;62291;47.554;8.504;2022-12-31T18:15:07;12.30;99.90
73939;DHT22;62291;47.554;8.504;2022-12-31T18:17:33;12.20;99.90
73939;DHT22;62291;47.554;8.504;2022-12-31T18:19:59;12.00;99.90
73939;DHT22;62291;47.554;8.504;2022-12-31T18:22:25;11.90;99.90
73939;DHT22;62291;47.554;8.504;2022-12-31T18:24:53;11.70;99.90
73939;DHT22;62291;47.554;8.504;2022-12-31T18:27:19;11.50;99.90
73939;DHT22;62291;47.554;8.504;2022-12-31T18:29:45;11.40;99.90
73939;DHT22;62291;47.554;8.504;2022-12-31T18:32:19;11.30;99.90
73939;DHT22;62291;47.554;8.504;2022-12-31T18:34:45;11.20;99.90
73939;DHT22;62291;47.554;8.504;2022-12-31T18:37:12;11.10;99.90
73939;DHT22;62291;47.554;8.504;2022-12-31T18:39:38;11.10;99.90
73939;DHT22;62291;47.554;8.504;2022-12-31T18:42:03;11.00;99.90
73939;DHT22;62291;47.554;8.504;2022-12-31T18:44:29;10.90;99.90
73939;DHT22;62291;47.554;8.504;2022-12-31T18:46:55;10.80;99.90
73939;DHT22;62291;47.554;8.504;2022-12-31T18:49:21;10.80;99.90
73939;DHT22;62291;47.554;8.504;2022-12-31T18:51:46;10.70;99.90
73939;DHT22;62291;47.554;8.504;2022-12-31T18:54:16;10.70;99.90
73939;DHT22;62291;47.554;8.504;2022-12-31T18:56:42;10.70;99.90
73939;DHT22;62291;47.554;8.504;2022-12-31T18:59:08;10.60;99.90
73939;DHT22;62291;47.554;8.504;2022-12-31T19:01:36;10.70;99.90
73939;DHT22;62291;47.554;8.504;2022-12-31T19:04:10;10.60;99.90
73939;DHT22;62291;47.554;8.504;2022-12-31T19:06:37;10.50;99.90
73939;DHT22;62291;47.554;8.504;2022-12-31T19:09:03;10.30;99.90
73939;DHT22;62291;47.554;8.504;2022-12-31T19:11:29;10.20;99.90
73939;DHT22;62291;47.554;8.504;2022-12-31T19:13:57;10.30;99.90
73939;DHT22;62291;47.554;8.504;2022-12-31T19:16:23;10.20;99.90
73939;DHT22;62291;47.554;8.504;2022-12-31T19:18:49;10.10;99.90
73939;DHT22;62291;47.554;8.504;2022-12-31T19:21:21;10.10;99.90
73939;DHT22;62291;47.554;8.504;2022-12-31T19:23:48;10.10;99.90
73939;DHT22;62291;47.554;8.504;2022-12-31T19:26:19;10.10;99.90
73939;DHT22;62291;47.554;8.504;2022-12-31T19:28:46;10.00;99.90
73939;DHT22;62291;47.554;8.504;2022-12-31T19:31:13;10.00;99.90
73939;DHT22;62291;47.554;8.504;2022-12-31T19:33:39;9.90;99.90
73939;DHT22;62291;47.554;8.504;2022-12-31T19:36:05;9.80;99.90
73939;DHT22;62291;47.554;8.504;2022-12-31T19:38:32;9.80;99.90
73939;DHT22;62291;47.554;8.504;2022-12-31T19:40:59;9.60;99.90
73939;DHT22;62291;47.554;8.504;2022-12-31T19:43:24;9.60;99.90